sensor_id;sensor_type;location;lat;lon;timestamp;P1;durP1;ratioP1;P2;durP2;ratioP2
12441;SDS011;6285;48.804;9.220;2023-06-10T00:01:41;8.52;;;7.70;;
12441;SDS011;6285;48.804;9.220;2023-06-10T00:04:12;10.05;;;7.97;;
12441;SDS011;6285;48.804;9.220;2023-06-10T00:06:39;10.52;;;7.95;;
12441;SDS011;6285;48.804;9.220;2023-06-10T00:09:06;9.23;;;8.40;;
12441;SDS011;6285;48.804;9.220;2023-06-10T00:11:35;8.02;;;7.22;;
12441;SDS011;6285;48.804;9.220;2023-06-10T00:14:03;8.50;;;7.65;;
12441;SDS011;6285;48.804;9.220;2023-06-10T00:16:32;8.80;;;8.00;;
12441;SDS011;6285;48.804;9.220;2023-06-10T00:18:58;8.80;;;8.00;;
12441;SDS011;6285;48.804;9.220;2023-06-10T00:21:26;9.93;;;8.07;;
12441;SDS011;6285;48.804;9.220;2023-06-10T00:23:53;9.23;;;8.32;;
12441;SDS011;6285;48.804;9.220;2023-06-10T00:26:21;9.43;;;8.50;;
12441;SDS011;6285;48.804;9.220;2023-06-10T00:28:48;9.20;;;8.07;;
12441;SDS011;6285;48.804;9.220;2023-06-10T00:31:17;9.05;;;7.88;;
12441;SDS011;6285;48.804;9.220;2023-06-10T00:33:45;8.60;;;7.80;;
12441;SDS011;6285;48.804;9.220;2023-06-10T00:36:12;9.23;;;8.23;;
12441;SDS011;6285;48.804;9.220;2023-06-10T00:38:39;9.82;;;8.50;;
12441;SDS011;6285;48.804;9.220;2023-06-10T00:41:07;9.25;;;8.38;;
12441;SDS011;6285;48.804;9.220;2023-06-10T00:43:34;9.48;;;8.48;;
12441;SDS011;6285;48.804;9.220;2023-06-10T00:46:01;9.60;;;7.57;;
12441;SDS011;6285;48.804;9.220;2023-06-10T00:48:28;11.48;;;8.85;;
12441;SDS011;6285;48.804;9.220;2023-06-10T00:50:57;9.82;;;8.73;;
12441;SDS011;6285;48.804;9.220;2023-06-10T00:53:25;9.18;;;8.25;;
12441;SDS011;6285;48.804;9.220;2023-06-10T00:55:53;9.32;;;8.43;;
12441;SDS011;6285;48.804;9.220;2023-06-10T00:58:20;9.40;;;8.35;;
12441;SDS011;6285;48.804;9.220;2023-06-10T01:00:47;9.65;;;8.68;;
12441;SDS011;6285;48.804;9.220;2023-06-10T01:03:15;9.20;;;8.40;;
12441;SDS011;6285;48.804;9.220;2023-06-10T01:05:43;9.40;;;8.43;;
12441;SDS011;6285;48.804;9.220;2023-06-10T01:08:18;9.35;;;8.45;;
12441;SDS011;6285;48.804;9.220;2023-06-10T01:10:54;9.18;;;8.38;;
12441;SDS011;6285;48.804;9.220;2023-06-10T01:13:24;9.93;;;8.93;;
12441;SDS011;6285;48.804;9.220;2023-06-10T01:15:53;9.85;;;8.90;;
12441;SDS011;6285;48.804;9.220;2023-06-10T01:18:21;10.20;;;8.77;;
12441;SDS011;6285;48.804;9.220;2023-06-10T01:20:48;9.88;;;8.80;;
12441;SDS011;6285;48.804;9.220;2023-06-10T01:23:18;9.57;;;8.40;;
12441;SDS011;6285;48.804;9.220;2023-06-10T01:25:46;9.98;;;8.85;;
12441;SDS011;6285;48.804;9.220;2023-06-10T01:28:18;11.30;;;9.82;;
12441;SDS011;6285;48.804;9.220;2023-06-10T01:30:59;12.80;;;8.60;;
12441;SDS011;6285;48.804;9.220;2023-06-10T01:33:37;9.85;;;8.85;;
12441;SDS011;6285;48.804;9.220;2023-06-10T01:36:08;9.93;;;8.95;;
12441;SDS011;6285;48.804;9.220;2023-06-10T01:41:43;10.27;;;9.15;;
12441;SDS011;6285;48.804;9.220;2023-06-10T01:44:11;10.85;;;8.88;;
12441;SDS011;6285;48.804;9.220;2023-06-10T01:46:43;9.65;;;8.75;;
12441;SDS011;6285;48.804;9.220;2023-06-10T01:49:10;10.88;;;9.75;;
12441;SDS011;6285;48.804;9.220;2023-06-10T01:51:37;11.38;;;9.40;;
12441;SDS011;6285;48.804;9.220;2023-06-10T01:54:04;10.10;;;9.13;;
12441;SDS011;6285;48.804;9.220;2023-06-10T01:56:33;10.95;;;9.93;;
12441;SDS011;6285;48.804;9.220;2023-06-10T01:59:00;10.60;;;9.50;;
12441;SDS011;6285;48.804;9.220;2023-06-10T02:01:27;10.80;;;9.63;;
12441;SDS011;6285;48.804;9.220;2023-06-10T02:03:54;11.73;;;10.23;;
12441;SDS011;6285;48.804;9.220;2023-06-10T02:06:21;12.20;;;10.43;;
12441;SDS011;6285;48.804;9.220;2023-06-10T02:08:48;10.68;;;9.70;;
12441;SDS011;6285;48.804;9.220;2023-06-10T02:11:16;10.25;;;9.30;;
12441;SDS011;6285;48.804;9.220;2023-06-10T02:13:44;12.27;;;10.07;;
12441;SDS011;6285;48.804;9.220;2023-06-10T02:16:10;11.57;;;10.38;;
12441;SDS011;6285;48.804;9.220;2023-06-10T02:18:39;11.05;;;9.95;;
12441;SDS011;6285;48.804;9.220;2023-06-10T02:21:08;11.65;;;10.43;;
12441;SDS011;6285;48.804;9.220;2023-06-10T02:23:35;11.05;;;9.77;;
12441;SDS011;6285;48.804;9.220;2023-06-10T02:26:02;11.02;;;10.02;;
12441;SDS011;6285;48.804;9.220;2023-06-10T02:28:29;10.73;;;9.82;;
12441;SDS011;6285;48.804;9.220;2023-06-10T02:30:58;13.27;;;10.48;;
12441;SDS011;6285;48.804;9.220;2023-06-10T02:33:25;11.93;;;10.70;;
12441;SDS011;6285;48.804;9.220;2023-06-10T02:35:53;11.20;;;10.20;;
12441;SDS011;6285;48.804;9.220;2023-06-10T02:38:20;12.48;;;11.20;;
12441;SDS011;6285;48.804;9.220;2023-06-10T02:40:47;11.60;;;10.57;;
12441;SDS011;6285;48.804;9.220;2023-06-10T02:43:14;11.77;;;10.57;;
12441;SDS011;6285;48.804;9.220;2023-06-10T02:45:41;12.25;;;10.93;;
12441;SDS011;6285;48.804;9.220;2023-06-10T02:48:10;10.20;;;9.18;;
12441;SDS011;6285;48.804;9.220;2023-06-10T02:50:37;11.43;;;10.32;;
12441;SDS011;6285;48.804;9.220;2023-06-10T02:53:05;11.40;;;10.25;;
12441;SDS011;6285;48.804;9.220;2023-06-10T02:55:33;11.23;;;10.20;;
12441;SDS011;6285;48.804;9.220;2023-06-10T02:58:00;10.13;;;9.32;;
12441;SDS011;6285;48.804;9.220;2023-06-10T03:00:27;10.95;;;9.75;;
12441;SDS011;6285;48.804;9.220;2023-06-10T03:02:55;10.63;;;9.63;;
12441;SDS011;6285;48.804;9.220;2023-06-10T03:05:24;11.38;;;10.38;;
12441;SDS011;6285;48.804;9.220;2023-06-10T03:07:51;11.18;;;10.00;;
12441;SDS011;6285;48.804;9.220;2023-06-10T03:10:18;10.15;;;9.25;;
12441;SDS011;6285;48.804;9.220;2023-06-10T03:12:45;10.27;;;9.35;;
12441;SDS011;6285;48.804;9.220;2023-06-10T03:15:12;11.10;;;10.07;;
12441;SDS011;6285;48.804;9.220;2023-06-10T03:17:40;10.77;;;9.68;;
12441;SDS011;6285;48.804;9.220;2023-06-10T03:20:08;10.77;;;9.70;;
12441;SDS011;6285;48.804;9.220;2023-06-10T03:22:37;10.73;;;9.73;;
12441;SDS011;6285;48.804;9.220;2023-06-10T03:25:05;11.27;;;10.27;;
12441;SDS011;6285;48.804;9.220;2023-06-10T03:27:38;10.82;;;9.85;;
12441;SDS011;6285;48.804;9.220;2023-06-10T03:30:06;10.68;;;9.60;;
12441;SDS011;6285;48.804;9.220;2023-06-10T03:32:34;11.02;;;9.48;;
12441;SDS011;6285;48.804;9.220;2023-06-10T03:35:01;11.20;;;10.10;;
12441;SDS011;6285;48.804;9.220;2023-06-10T03:37:28;11.25;;;9.98;;
12441;SDS011;6285;48.804;9.220;2023-06-10T03:39:57;10.63;;;9.63;;
12441;SDS011;6285;48.804;9.220;2023-06-10T03:42:24;10.50;;;9.20;;
12441;SDS011;6285;48.804;9.220;2023-06-10T03:44:51;10.30;;;9.35;;
12441;SDS011;6285;48.804;9.220;2023-06-10T03:47:18;10.98;;;10.02;;
12441;SDS011;6285;48.804;9.220;2023-06-10T03:49:45;10.98;;;9.90;;
12441;SDS011;6285;48.804;9.220;2023-06-10T03:52:12;10.75;;;9.75;;
12441;SDS011;6285;48.804;9.220;2023-06-10T03:54:39;10.45;;;9.27;;
12441;SDS011;6285;48.804;9.220;2023-06-10T03:57:08;10.90;;;9.85;;
12441;SDS011;6285;48.804;9.220;2023-06-10T03:59:35;10.30;;;9.40;;
12441;SDS011;6285;48.804;9.220;2023-06-10T04:02:02;10.55;;;9.55;;
12441;SDS011;6285;48.804;9.220;2023-06-10T04:04:29;10.48;;;9.48;;
12441;SDS011;6285;48.804;9.220;2023-06-10T04:06:57;10.13;;;9.23;;
12441;SDS011;6285;48.804;9.220;2023-06-10T04:09:24;9.88;;;8.98;;
12441;SDS011;6285;48.804;9.220;2023-06-10T04:11:51;9.75;;;8.85;;
12441;SDS011;6285;48.804;9.220;2023-06-10T04:14:20;10.95;;;9.73;;
12441;SDS011;6285;48.804;9.220;2023-06-10T04:16:46;11.68;;;9.23;;
12441;SDS011;6285;48.804;9.220;2023-06-10T04:19:14;10.27;;;9.07;;
12441;SDS011;6285;48.804;9.220;2023-06-10T04:21:41;10.50;;;8.93;;
12441;SDS011;6285;48.804;9.220;2023-06-10T04:24:08;10.00;;;9.00;;
12441;SDS011;6285;48.804;9.220;2023-06-10T04:26:35;9.85;;;8.80;;
12441;SDS011;6285;48.804;9.220;2023-06-10T04:29:03;10.57;;;9.48;;
12441;SDS011;6285;48.804;9.220;2023-06-10T04:31:31;10.48;;;9.48;;
12441;SDS011;6285;48.804;9.220;2023-06-10T04:33:59;10.10;;;9.10;;
12441;SDS011;6285;48.804;9.220;2023-06-10T04:36:26;10.05;;;8.98;;
12441;SDS011;6285;48.804;9.220;2023-06-10T04:38:54;9.43;;;8.60;;
12441;SDS011;6285;48.804;9.220;2023-06-10T04:41:21;10.32;;;9.15;;
12441;SDS011;6285;48.804;9.220;2023-06-10T04:43:48;8.48;;;7.68;;
12441;SDS011;6285;48.804;9.220;2023-06-10T04:46:16;8.55;;;7.75;;
12441;SDS011;6285;48.804;9.220;2023-06-10T04:48:44;8.40;;;7.70;;
12441;SDS011;6285;48.804;9.220;2023-06-10T04:51:12;9.02;;;7.97;;
12441;SDS011;6285;48.804;9.220;2023-06-10T04:53:39;9.20;;;8.30;;
12441;SDS011;6285;48.804;9.220;2023-06-10T04:56:06;9.15;;;8.32;;
12441;SDS011;6285;48.804;9.220;2023-06-10T04:58:34;9.18;;;8.32;;
12441;SDS011;6285;48.804;9.220;2023-06-10T05:01:01;8.88;;;7.95;;
12441;SDS011;6285;48.804;9.220;2023-06-10T05:03:28;8.38;;;7.57;;
12441;SDS011;6285;48.804;9.220;2023-06-10T05:05:56;7.78;;;7.07;;
12441;SDS011;6285;48.804;9.220;2023-06-10T05:08:23;8.80;;;8.00;;
12441;SDS011;6285;48.804;9.220;2023-06-10T05:10:50;8.90;;;8.00;;
12441;SDS011;6285;48.804;9.220;2023-06-10T05:13:17;7.55;;;6.80;;
12441;SDS011;6285;48.804;9.220;2023-06-10T05:15:44;7.88;;;7.07;;
12441;SDS011;6285;48.804;9.220;2023-06-10T05:18:11;8.27;;;7.45;;
12441;SDS011;6285;48.804;9.220;2023-06-10T05:20:38;8.90;;;8.00;;
12441;SDS011;6285;48.804;9.220;2023-06-10T05:23:07;8.20;;;7.50;;
12441;SDS011;6285;48.804;9.220;2023-06-10T05:25:34;8.30;;;7.60;;
12441;SDS011;6285;48.804;9.220;2023-06-10T05:28:01;7.85;;;7.15;;
12441;SDS011;6285;48.804;9.220;2023-06-10T05:30:28;8.55;;;7.30;;
12441;SDS011;6285;48.804;9.220;2023-06-10T05:32:55;8.57;;;6.53;;
12441;SDS011;6285;48.804;9.220;2023-06-10T05:35:22;8.07;;;7.28;;
12441;SDS011;6285;48.804;9.220;2023-06-10T05:37:50;8.35;;;6.45;;
12441;SDS011;6285;48.804;9.220;2023-06-10T05:40:18;7.30;;;6.65;;
12441;SDS011;6285;48.804;9.220;2023-06-10T05:42:45;7.72;;;6.65;;
12441;SDS011;6285;48.804;9.220;2023-06-10T05:45:12;6.10;;;5.40;;
12441;SDS011;6285;48.804;9.220;2023-06-10T05:47:39;5.93;;;5.13;;
12441;SDS011;6285;48.804;9.220;2023-06-10T05:50:07;5.88;;;5.35;;
12441;SDS011;6285;48.804;9.220;2023-06-10T05:52:35;5.93;;;5.20;;
12441;SDS011;6285;48.804;9.220;2023-06-10T05:55:02;6.38;;;5.53;;
12441;SDS011;6285;48.804;9.220;2023-06-10T05:57:31;5.95;;;5.40;;
12441;SDS011;6285;48.804;9.220;2023-06-10T05:59:58;5.93;;;5.43;;
12441;SDS011;6285;48.804;9.220;2023-06-10T06:02:25;5.68;;;4.88;;
12441;SDS011;6285;48.804;9.220;2023-06-10T06:04:52;5.60;;;5.18;;
12441;SDS011;6285;48.804;9.220;2023-06-10T06:07:19;5.97;;;5.32;;
12441;SDS011;6285;48.804;9.220;2023-06-10T06:09:46;6.03;;;5.53;;
12441;SDS011;6285;48.804;9.220;2023-06-10T06:12:14;6.13;;;5.53;;
12441;SDS011;6285;48.804;9.220;2023-06-10T06:14:42;5.28;;;4.88;;
12441;SDS011;6285;48.804;9.220;2023-06-10T06:17:09;6.07;;;5.55;;
12441;SDS011;6285;48.804;9.220;2023-06-10T06:19:37;5.90;;;5.30;;
12441;SDS011;6285;48.804;9.220;2023-06-10T06:22:04;6.38;;;4.90;;
12441;SDS011;6285;48.804;9.220;2023-06-10T06:24:31;5.97;;;5.47;;
12441;SDS011;6285;48.804;9.220;2023-06-10T06:26:59;6.25;;;5.70;;
12441;SDS011;6285;48.804;9.220;2023-06-10T06:29:26;5.43;;;4.97;;
12441;SDS011;6285;48.804;9.220;2023-06-10T06:31:56;5.78;;;5.15;;
12441;SDS011;6285;48.804;9.220;2023-06-10T06:34:23;5.50;;;5.00;;
12441;SDS011;6285;48.804;9.220;2023-06-10T06:36:50;5.45;;;5.05;;
12441;SDS011;6285;48.804;9.220;2023-06-10T06:39:17;5.22;;;4.80;;
12441;SDS011;6285;48.804;9.220;2023-06-10T06:41:44;5.57;;;4.68;;
12441;SDS011;6285;48.804;9.220;2023-06-10T06:44:11;5.65;;;5.15;;
12441;SDS011;6285;48.804;9.220;2023-06-10T06:46:38;5.03;;;4.55;;
12441;SDS011;6285;48.804;9.220;2023-06-10T06:49:06;5.07;;;4.68;;
12441;SDS011;6285;48.804;9.220;2023-06-10T06:51:33;6.20;;;5.60;;
12441;SDS011;6285;48.804;9.220;2023-06-10T06:54:00;5.47;;;4.95;;
12441;SDS011;6285;48.804;9.220;2023-06-10T06:56:27;4.90;;;4.50;;
12441;SDS011;6285;48.804;9.220;2023-06-10T06:58:54;5.30;;;4.80;;
12441;SDS011;6285;48.804;9.220;2023-06-10T07:01:21;5.00;;;4.50;;
12441;SDS011;6285;48.804;9.220;2023-06-10T07:03:48;5.28;;;4.70;;
12441;SDS011;6285;48.804;9.220;2023-06-10T07:06:17;5.13;;;4.72;;
12441;SDS011;6285;48.804;9.220;2023-06-10T07:08:43;5.78;;;5.28;;
12441;SDS011;6285;48.804;9.220;2023-06-10T07:11:11;5.30;;;4.80;;
12441;SDS011;6285;48.804;9.220;2023-06-10T07:13:38;5.40;;;5.00;;
12441;SDS011;6285;48.804;9.220;2023-06-10T07:16:05;5.47;;;5.07;;
12441;SDS011;6285;48.804;9.220;2023-06-10T07:18:32;5.47;;;4.90;;
12441;SDS011;6285;48.804;9.220;2023-06-10T07:21:00;5.70;;;5.25;;
12441;SDS011;6285;48.804;9.220;2023-06-10T07:23:28;6.07;;;5.47;;
12441;SDS011;6285;48.804;9.220;2023-06-10T07:25:55;5.10;;;4.70;;
12441;SDS011;6285;48.804;9.220;2023-06-10T07:28:22;6.28;;;5.32;;
12441;SDS011;6285;48.804;9.220;2023-06-10T07:30:49;5.22;;;4.82;;
12441;SDS011;6285;48.804;9.220;2023-06-10T07:33:16;5.18;;;4.75;;
12441;SDS011;6285;48.804;9.220;2023-06-10T07:35:44;4.82;;;4.43;;
12441;SDS011;6285;48.804;9.220;2023-06-10T07:38:11;5.05;;;4.65;;
12441;SDS011;6285;48.804;9.220;2023-06-10T07:40:39;9.15;;;5.32;;
12441;SDS011;6285;48.804;9.220;2023-06-10T07:43:06;4.72;;;4.43;;
12441;SDS011;6285;48.804;9.220;2023-06-10T07:45:33;4.35;;;4.05;;
12441;SDS011;6285;48.804;9.220;2023-06-10T07:48:00;4.93;;;4.05;;
12441;SDS011;6285;48.804;9.220;2023-06-10T07:50:27;4.90;;;4.50;;
12441;SDS011;6285;48.804;9.220;2023-06-10T07:52:55;4.68;;;4.28;;
12441;SDS011;6285;48.804;9.220;2023-06-10T07:55:22;4.43;;;4.03;;
12441;SDS011;6285;48.804;9.220;2023-06-10T07:57:52;4.78;;;4.20;;
12441;SDS011;6285;48.804;9.220;2023-06-10T08:00:19;4.20;;;3.90;;
12441;SDS011;6285;48.804;9.220;2023-06-10T08:02:46;4.22;;;3.92;;
12441;SDS011;6285;48.804;9.220;2023-06-10T08:05:14;5.43;;;4.28;;
12441;SDS011;6285;48.804;9.220;2023-06-10T08:07:41;4.63;;;4.22;;
12441;SDS011;6285;48.804;9.220;2023-06-10T08:10:09;4.72;;;4.32;;
12441;SDS011;6285;48.804;9.220;2023-06-10T08:12:36;4.80;;;4.40;;
12441;SDS011;6285;48.804;9.220;2023-06-10T08:15:05;5.47;;;4.28;;
12441;SDS011;6285;48.804;9.220;2023-06-10T08:17:33;4.93;;;4.53;;
12441;SDS011;6285;48.804;9.220;2023-06-10T08:20:00;5.93;;;4.68;;
12441;SDS011;6285;48.804;9.220;2023-06-10T08:22:27;9.38;;;6.20;;
12441;SDS011;6285;48.804;9.220;2023-06-10T08:24:55;5.00;;;4.57;;
12441;SDS011;6285;48.804;9.220;2023-06-10T08:27:22;4.35;;;4.05;;
12441;SDS011;6285;48.804;9.220;2023-06-10T12:47:45;4.38;;;3.97;;
12441;SDS011;6285;48.804;9.220;2023-06-10T12:50:12;4.28;;;3.95;;
12441;SDS011;6285;48.804;9.220;2023-06-10T12:52:40;4.90;;;3.97;;
12441;SDS011;6285;48.804;9.220;2023-06-10T12:55:08;6.32;;;5.68;;
12441;SDS011;6285;48.804;9.220;2023-06-10T13:13:15;4.50;;;4.10;;
12441;SDS011;6285;48.804;9.220;2023-06-10T13:15:42;7.32;;;4.50;;
12441;SDS011;6285;48.804;9.220;2023-06-10T13:18:10;4.15;;;3.75;;
12441;SDS011;6285;48.804;9.220;2023-06-10T13:20:38;5.53;;;3.80;;
12441;SDS011;6285;48.804;9.220;2023-06-10T13:23:05;4.25;;;3.90;;
12441;SDS011;6285;48.804;9.220;2023-06-10T13:25:33;6.85;;;4.03;;
12441;SDS011;6285;48.804;9.220;2023-06-10T13:28:01;4.78;;;3.60;;
12441;SDS011;6285;48.804;9.220;2023-06-10T13:30:28;3.72;;;3.40;;
12441;SDS011;6285;48.804;9.220;2023-06-10T13:32:55;4.18;;;3.78;;
12441;SDS011;6285;48.804;9.220;2023-06-10T13:35:23;4.32;;;3.95;;
12441;SDS011;6285;48.804;9.220;2023-06-10T13:37:50;4.95;;;4.00;;
12441;SDS011;6285;48.804;9.220;2023-06-10T13:40:17;4.22;;;3.80;;
12441;SDS011;6285;48.804;9.220;2023-06-10T13:42:44;4.40;;;3.65;;
12441;SDS011;6285;48.804;9.220;2023-06-10T13:45:17;3.63;;;3.33;;
12441;SDS011;6285;48.804;9.220;2023-06-10T13:47:43;4.18;;;3.80;;
12441;SDS011;6285;48.804;9.220;2023-06-10T13:50:10;4.03;;;3.70;;
12441;SDS011;6285;48.804;9.220;2023-06-10T13:52:38;4.97;;;3.80;;
12441;SDS011;6285;48.804;9.220;2023-06-10T13:55:05;4.50;;;4.10;;
12441;SDS011;6285;48.804;9.220;2023-06-10T13:57:32;4.13;;;3.83;;
12441;SDS011;6285;48.804;9.220;2023-06-10T13:59:59;4.07;;;3.75;;
12441;SDS011;6285;48.804;9.220;2023-06-10T14:02:28;4.10;;;3.55;;
12441;SDS011;6285;48.804;9.220;2023-06-10T14:04:55;3.63;;;3.33;;
12441;SDS011;6285;48.804;9.220;2023-06-10T14:07:22;3.90;;;3.50;;
12441;SDS011;6285;48.804;9.220;2023-06-10T14:09:51;5.07;;;3.80;;
12441;SDS011;6285;48.804;9.220;2023-06-10T14:12:18;4.35;;;3.85;;
12441;SDS011;6285;48.804;9.220;2023-06-10T14:14:45;3.65;;;3.45;;
12441;SDS011;6285;48.804;9.220;2023-06-10T14:17:12;4.00;;;3.70;;
12441;SDS011;6285;48.804;9.220;2023-06-10T14:19:41;4.10;;;3.80;;
12441;SDS011;6285;48.804;9.220;2023-06-10T14:22:08;4.10;;;3.70;;
12441;SDS011;6285;48.804;9.220;2023-06-10T14:24:35;3.97;;;3.67;;
12441;SDS011;6285;48.804;9.220;2023-06-10T14:27:02;4.35;;;3.97;;
12441;SDS011;6285;48.804;9.220;2023-06-10T14:29:29;4.50;;;4.05;;
12441;SDS011;6285;48.804;9.220;2023-06-10T14:31:58;4.75;;;4.30;;
12441;SDS011;6285;48.804;9.220;2023-06-10T14:34:25;4.35;;;3.95;;
12441;SDS011;6285;48.804;9.220;2023-06-10T14:36:56;5.47;;;4.18;;
12441;SDS011;6285;48.804;9.220;2023-06-10T14:39:23;4.53;;;4.13;;
12441;SDS011;6285;48.804;9.220;2023-06-10T14:41:50;4.60;;;4.28;;
12441;SDS011;6285;48.804;9.220;2023-06-10T14:44:18;4.85;;;4.38;;
12441;SDS011;6285;48.804;9.220;2023-06-10T14:46:45;4.25;;;3.95;;
12441;SDS011;6285;48.804;9.220;2023-06-10T14:49:12;4.60;;;4.18;;
12441;SDS011;6285;48.804;9.220;2023-06-10T14:51:39;4.32;;;3.78;;
12441;SDS011;6285;48.804;9.220;2023-06-10T14:54:08;5.68;;;4.40;;
12441;SDS011;6285;48.804;9.220;2023-06-10T14:56:35;4.30;;;4.00;;
12441;SDS011;6285;48.804;9.220;2023-06-10T14:59:02;4.85;;;4.20;;
12441;SDS011;6285;48.804;9.220;2023-06-10T15:01:29;4.70;;;4.30;;
12441;SDS011;6285;48.804;9.220;2023-06-10T15:03:56;4.93;;;4.50;;
12441;SDS011;6285;48.804;9.220;2023-06-10T15:06:23;5.28;;;4.85;;
12441;SDS011;6285;48.804;9.220;2023-06-10T15:08:51;5.20;;;4.80;;
12441;SDS011;6285;48.804;9.220;2023-06-10T15:11:19;6.20;;;5.03;;
12441;SDS011;6285;48.804;9.220;2023-06-10T15:13:47;5.05;;;4.65;;
12441;SDS011;6285;48.804;9.220;2023-06-10T15:16:14;4.97;;;4.55;;
12441;SDS011;6285;48.804;9.220;2023-06-10T15:18:41;4.70;;;4.40;;
12441;SDS011;6285;48.804;9.220;2023-06-10T15:21:08;4.93;;;4.35;;
12441;SDS011;6285;48.804;9.220;2023-06-10T15:23:36;5.32;;;4.60;;
12441;SDS011;6285;48.804;9.220;2023-06-10T15:26:03;5.18;;;4.68;;
12441;SDS011;6285;48.804;9.220;2023-06-10T15:28:31;4.68;;;4.35;;
12441;SDS011;6285;48.804;9.220;2023-06-10T15:30:58;4.72;;;4.32;;
12441;SDS011;6285;48.804;9.220;2023-06-10T15:33:25;5.03;;;4.55;;
12441;SDS011;6285;48.804;9.220;2023-06-10T15:35:53;5.80;;;4.75;;
12441;SDS011;6285;48.804;9.220;2023-06-10T15:38:20;4.78;;;4.38;;
12441;SDS011;6285;48.804;9.220;2023-06-10T15:40:47;6.88;;;4.35;;
12441;SDS011;6285;48.804;9.220;2023-06-10T15:43:14;5.13;;;4.72;;
12441;SDS011;6285;48.804;9.220;2023-06-10T15:45:43;4.68;;;4.22;;
12441;SDS011;6285;48.804;9.220;2023-06-10T15:48:10;4.90;;;4.50;;
12441;SDS011;6285;48.804;9.220;2023-06-10T15:50:37;4.32;;;4.03;;
12441;SDS011;6285;48.804;9.220;2023-06-10T15:53:04;4.13;;;3.72;;
12441;SDS011;6285;48.804;9.220;2023-06-10T15:55:32;4.20;;;3.90;;
12441;SDS011;6285;48.804;9.220;2023-06-10T15:57:59;4.07;;;3.67;;
12441;SDS011;6285;48.804;9.220;2023-06-10T16:00:28;3.65;;;3.35;;
12441;SDS011;6285;48.804;9.220;2023-06-10T16:02:57;4.15;;;3.80;;
12441;SDS011;6285;48.804;9.220;2023-06-10T16:05:25;3.83;;;3.53;;
12441;SDS011;6285;48.804;9.220;2023-06-10T16:07:52;3.75;;;3.45;;
12441;SDS011;6285;48.804;9.220;2023-06-10T16:10:19;4.32;;;3.92;;
12441;SDS011;6285;48.804;9.220;2023-06-10T16:12:47;4.10;;;3.67;;
12441;SDS011;6285;48.804;9.220;2023-06-10T16:15:15;4.45;;;4.05;;
12441;SDS011;6285;48.804;9.220;2023-06-10T16:17:43;4.38;;;4.07;;
12441;SDS011;6285;48.804;9.220;2023-06-10T16:20:13;5.60;;;4.40;;
12441;SDS011;6285;48.804;9.220;2023-06-10T16:22:40;4.47;;;4.07;;
12441;SDS011;6285;48.804;9.220;2023-06-10T16:25:07;4.50;;;4.20;;
12441;SDS011;6285;48.804;9.220;2023-06-10T16:27:35;4.28;;;3.95;;
12441;SDS011;6285;48.804;9.220;2023-06-10T16:30:02;3.97;;;3.42;;
12441;SDS011;6285;48.804;9.220;2023-06-10T16:32:29;4.57;;;4.18;;
12441;SDS011;6285;48.804;9.220;2023-06-10T16:34:56;4.25;;;3.92;;
12441;SDS011;6285;48.804;9.220;2023-06-10T16:37:25;9.32;;;4.00;;
12441;SDS011;6285;48.804;9.220;2023-06-10T16:39:51;3.90;;;3.50;;
12441;SDS011;6285;48.804;9.220;2023-06-10T16:42:18;4.00;;;3.58;;
12441;SDS011;6285;48.804;9.220;2023-06-10T16:44:46;3.97;;;3.67;;
12441;SDS011;6285;48.804;9.220;2023-06-10T16:47:13;5.18;;;4.22;;
12441;SDS011;6285;48.804;9.220;2023-06-10T16:49:40;4.55;;;3.22;;
12441;SDS011;6285;48.804;9.220;2023-06-10T16:52:07;4.85;;;3.72;;
12441;SDS011;6285;48.804;9.220;2023-06-10T16:54:36;4.55;;;4.15;;
12441;SDS011;6285;48.804;9.220;2023-06-10T16:57:03;4.53;;;3.35;;
12441;SDS011;6285;48.804;9.220;2023-06-10T16:59:30;4.20;;;3.80;;
12441;SDS011;6285;48.804;9.220;2023-06-10T17:01:57;3.88;;;3.55;;
12441;SDS011;6285;48.804;9.220;2023-06-10T17:04:24;4.53;;;3.95;;
12441;SDS011;6285;48.804;9.220;2023-06-10T17:06:51;4.00;;;3.70;;
12441;SDS011;6285;48.804;9.220;2023-06-10T17:09:19;4.22;;;3.72;;
12441;SDS011;6285;48.804;9.220;2023-06-10T17:11:47;4.20;;;3.80;;
12441;SDS011;6285;48.804;9.220;2023-06-10T17:14:15;4.35;;;3.90;;
12441;SDS011;6285;48.804;9.220;2023-06-10T17:16:42;3.47;;;3.28;;
12441;SDS011;6285;48.804;9.220;2023-06-10T17:19:10;4.28;;;3.97;;
12441;SDS011;6285;48.804;9.220;2023-06-10T17:21:37;4.05;;;3.58;;
12441;SDS011;6285;48.804;9.220;2023-06-10T17:24:04;4.28;;;3.80;;
12441;SDS011;6285;48.804;9.220;2023-06-10T17:26:31;5.97;;;3.72;;
12441;SDS011;6285;48.804;9.220;2023-06-10T17:29:00;4.60;;;4.20;;
12441;SDS011;6285;48.804;9.220;2023-06-10T17:31:27;4.15;;;3.80;;
12441;SDS011;6285;48.804;9.220;2023-06-10T17:33:55;4.28;;;3.90;;
12441;SDS011;6285;48.804;9.220;2023-06-10T17:36:22;4.70;;;4.20;;
12441;SDS011;6285;48.804;9.220;2023-06-10T17:38:50;4.22;;;3.92;;
12441;SDS011;6285;48.804;9.220;2023-06-10T17:41:17;4.47;;;4.03;;
12441;SDS011;6285;48.804;9.220;2023-06-10T17:43:44;4.50;;;3.83;;
12441;SDS011;6285;48.804;9.220;2023-06-10T17:46:13;4.25;;;3.95;;
12441;SDS011;6285;48.804;9.220;2023-06-10T17:48:40;4.88;;;4.18;;
12441;SDS011;6285;48.804;9.220;2023-06-10T17:51:07;4.45;;;4.05;;
12441;SDS011;6285;48.804;9.220;2023-06-10T17:53:33;4.65;;;4.25;;
12441;SDS011;6285;48.804;9.220;2023-06-10T17:56:01;4.65;;;4.25;;
12441;SDS011;6285;48.804;9.220;2023-06-10T17:58:28;5.32;;;4.22;;
12441;SDS011;6285;48.804;9.220;2023-06-10T18:00:55;5.38;;;4.22;;
12441;SDS011;6285;48.804;9.220;2023-06-10T18:03:25;5.10;;;4.50;;
12441;SDS011;6285;48.804;9.220;2023-06-10T18:05:53;4.57;;;4.20;;
12441;SDS011;6285;48.804;9.220;2023-06-10T18:08:20;4.97;;;4.57;;
12441;SDS011;6285;48.804;9.220;2023-06-10T18:10:47;4.78;;;4.38;;
12441;SDS011;6285;48.804;9.220;2023-06-10T18:13:14;4.82;;;4.32;;
12441;SDS011;6285;48.804;9.220;2023-06-10T18:15:41;4.30;;;3.90;;
12441;SDS011;6285;48.804;9.220;2023-06-10T18:18:08;5.35;;;4.85;;
12441;SDS011;6285;48.804;9.220;2023-06-10T18:20:37;4.53;;;4.22;;
12441;SDS011;6285;48.804;9.220;2023-06-10T18:23:03;4.47;;;4.00;;
12441;SDS011;6285;48.804;9.220;2023-06-10T18:25:30;4.72;;;4.32;;
12441;SDS011;6285;48.804;9.220;2023-06-10T18:27:57;4.50;;;4.10;;
12441;SDS011;6285;48.804;9.220;2023-06-10T18:30:25;4.93;;;4.53;;
12441;SDS011;6285;48.804;9.220;2023-06-10T18:32:52;4.63;;;4.22;;
12441;SDS011;6285;48.804;9.220;2023-06-10T18:35:20;4.32;;;4.03;;
12441;SDS011;6285;48.804;9.220;2023-06-10T18:37:48;4.70;;;4.30;;
12441;SDS011;6285;48.804;9.220;2023-06-10T18:40:15;5.78;;;4.85;;
12441;SDS011;6285;48.804;9.220;2023-06-10T18:42:43;4.72;;;4.15;;
12441;SDS011;6285;48.804;9.220;2023-06-10T18:45:10;4.28;;;3.97;;
12441;SDS011;6285;48.804;9.220;2023-06-10T18:47:38;5.55;;;4.38;;
12441;SDS011;6285;48.804;9.220;2023-06-10T18:50:05;5.32;;;4.35;;
12441;SDS011;6285;48.804;9.220;2023-06-10T18:52:32;4.80;;;4.30;;
12441;SDS011;6285;48.804;9.220;2023-06-10T18:55:00;5.57;;;4.20;;
12441;SDS011;6285;48.804;9.220;2023-06-10T18:57:27;4.20;;;3.90;;
12441;SDS011;6285;48.804;9.220;2023-06-10T18:59:54;4.20;;;3.85;;
12441;SDS011;6285;48.804;9.220;2023-06-10T19:02:21;4.68;;;4.30;;
12441;SDS011;6285;48.804;9.220;2023-06-10T19:04:49;4.60;;;4.20;;
12441;SDS011;6285;48.804;9.220;2023-06-10T19:07:16;5.38;;;4.40;;
12441;SDS011;6285;48.804;9.220;2023-06-10T19:09:43;5.05;;;4.65;;
12441;SDS011;6285;48.804;9.220;2023-06-10T19:12:12;4.75;;;4.25;;
12441;SDS011;6285;48.804;9.220;2023-06-10T19:14:38;4.50;;;4.10;;
12441;SDS011;6285;48.804;9.220;2023-06-10T19:17:06;4.63;;;4.20;;
12441;SDS011;6285;48.804;9.220;2023-06-10T19:19:33;4.88;;;4.38;;
12441;SDS011;6285;48.804;9.220;2023-06-10T19:22:00;5.32;;;4.82;;
12441;SDS011;6285;48.804;9.220;2023-06-10T19:24:28;4.88;;;4.47;;
12441;SDS011;6285;48.804;9.220;2023-06-10T19:26:55;6.47;;;4.50;;
12441;SDS011;6285;48.804;9.220;2023-06-10T19:29:23;4.80;;;4.40;;
12441;SDS011;6285;48.804;9.220;2023-06-10T19:31:50;4.53;;;4.10;;
12441;SDS011;6285;48.804;9.220;2023-06-10T19:34:17;5.10;;;4.60;;
12441;SDS011;6285;48.804;9.220;2023-06-10T19:36:44;4.90;;;4.50;;